Nearby METAR Reports

 

LKTB - Brno/Turany, Czech Republic
Distance from station: SSE 9mi, 14km
Updated: Mon, 21-Jan-2019 2:00am CET
Clear
Clear
 Wind from NW
Wind: NW 5 mph , 7 km/h
Temperature: 21°F , -6°C
Wind Chill: 14°F , -10°C
Dew Point: 18°F , -8°C
Humidity: 86%
Barometer: 30.12 inHg , 1020 hPa
Summary: Clear
Visibility: greater than 7 miles , 10 km
2019/01/21 01:00 LKTB 210100Z 31004KT CAVOK M06/M08 Q1020 NOSIG
LKNA - Namest, Czech Republic
Distance from station: WSW 24mi, 38km
Updated: Mon, 21-Jan-2019 2:00am CET
Clear
Clear
 Wind from NW
Wind: NW 5 mph , 7 km/h
Temperature: 21°F , -6°C
Wind Chill: 14°F , -10°C
Dew Point: 18°F , -8°C
Humidity: 86%
Barometer: 30.09 inHg , 1019 hPa
Summary: Clear
Visibility: greater than 7 miles , 10 km
2019/01/21 01:00 LKNA 210100Z 32004KT CAVOK M06/M08 Q1019
 
LKKU - Kunovice, Czech Republic
Distance from station: ESE 40mi, 64km
Updated: Fri, 18-Jan-2019 4:00pm CET
NOT Current
Few Clouds
Few Clouds
 Wind from NW
Wind: NW 9 mph , 15 km/h
Temperature: 36°F , 2°C
Wind Chill: 29°F , -2°C
Dew Point: 16°F , -9°C
Humidity: 44%
Barometer: 30.06 inHg , 1018 hPa
Clouds: Few Clouds
Visibility: 6 miles , 10 km
Cloud details: Few Clouds 4300 ft
2019/01/18 15:00 LKKU 181500Z 32008KT 9999 FEW043 02/M09 Q1018
LKPD - Pardubice, Czech Republic
Distance from station: NW 66mi, 106km
Updated: Mon, 21-Jan-2019 2:00am CET
Partly Cloudy
Partly Cloudy
 Wind from W
Wind: W 1 mph , 2 km/h
Temperature: 18°F , -8°C
Dew Point: 14°F , -10°C
Humidity: 86%
Barometer: 30.15 inHg , 1021 hPa
Clouds: Partly Cloudy
Visibility: 4 miles , 7 km
2019/01/21 01:00 LKPD 210100Z 26001KT 7000 NSC M08/M10 Q1021
 
LOXT - Langenlebarn/Tul, Austria
Distance from station: SSW 69mi, 111km
Updated: Sun, 20-Jan-2019 9:50pm CET
NOT Current
Mostly Cloudy
Mostly Cloudy
 Wind from WSW
Wind: WSW 3 mph , 6 km/h
Temperature: 28°F , -2°C
Dew Point: 25°F , -4°C
Humidity: 86%
Barometer: 30.12 inHg , 1020 hPa
Clouds: Mostly Cloudy
Cloud details: Few Clouds 2500 ft
Mostly Cloudy 4500 ft
2019/01/20 20:50 LOXT 202050Z 24003KT 12KM FEW025SC BKN045SC M02/M04 Q1020 RMK BKN
LZPP - Piestany, Slovakia
Distance from station: SE 70mi, 113km
Updated: Mon, 21-Jan-2019 2:00am CET
Clear
Clear
 Wind from NE
Wind: NE 5 mph , 7 km/h
Temperature: 21°F , -6°C
Wind Chill: 14°F , -10°C
Dew Point: 18°F , -8°C
Humidity: 86%
Barometer: 30.12 inHg , 1020 hPa
Clouds: Clear
Visibility: 6 miles , 10 km
2019/01/21 01:00 LZPP 210100Z AUTO 04004KT 020V080 9999 NCD M06/M08 Q1020
 
LKCV - Caslav, Czech Republic
Distance from station: NW 73mi, 117km
Updated: Mon, 21-Jan-2019 2:00am CET
Mist, Partly cloudy
Mist, Partly cloudy
 Wind from varies
Wind: varies 1 mph , 2 km/h
Temperature: 19°F , -7°C
Dew Point: 18°F , -8°C
Humidity: 93%
Barometer: 30.15 inHg , 1021 hPa
Summary: Mist
Clouds: Partly Cloudy
Visibility: 4 miles , 7 km
2019/01/21 01:00 LKCV 210100Z VRB01KT 7000 BR NSC M07/M08 Q1021 NOSIG
LKMT - Ostrava/Mosnov, Czech Republic
Distance from station: ENE 73mi, 117km
Updated: Mon, 21-Jan-2019 2:00am CET
Mist, Partly cloudy
Mist, Partly cloudy
 Wind from varies
Wind: varies 2 mph , 4 km/h
Temperature: 16°F , -9°C
Dew Point: 12°F , -11°C
Humidity: 86%
Barometer: 30.15 inHg , 1021 hPa
Summary: Mist
Clouds: Partly Cloudy
Visibility: 1 mile , 2 km
2019/01/21 01:00 LKMT 210100Z VRB02KT 2200 BR NSC M09/M11 Q1021 R04/31//95 TEMPO 1200 BR
 
LOWW - Vienna/Schwechat, Austria
Distance from station: S 79mi, 127km
Updated: Mon, 21-Jan-2019 1:50am CET
Few Clouds
Few Clouds
 Wind from WNW
Wind: WNW 6 mph , 9 km/h
Temperature: 25°F , -4°C
Wind Chill: 18°F , -8°C
Dew Point: 19°F , -7°C
Humidity: 80%
Barometer: 30.12 inHg , 1020 hPa
Clouds: Few Clouds
Visibility: 6 miles , 10 km
Cloud details: Few Clouds 2800 ft
2019/01/21 00:50 LOWW 210050Z 29005KT 9999 FEW028 M04/M07 Q1020 R88/19//95 NOSIG
LZIB - Bratislava Ivank, Slovakia
Distance from station: SSE 80mi, 128km
Updated: Mon, 21-Jan-2019 2:00am CET
Clear
Clear
 Wind from W
Wind: W 3 mph , 6 km/h
Temperature: 28°F , -2°C
Dew Point: 21°F , -6°C
Humidity: 74%
Barometer: 30.12 inHg , 1020 hPa
Summary: Clear
Visibility: greater than 7 miles , 10 km
2019/01/21 01:00 LZIB 210100Z 27003KT 200V300 CAVOK M02/M06 Q1020
 
LZZI - Zilina, Slovakia
Distance from station: E 90mi, 145km
Updated: Mon, 21-Jan-2019 2:00am CET
Mist, Partly cloudy
Mist, Partly cloudy
 Wind from E
Wind: E 6 mph , 9 km/h
Temperature: 16°F , -9°C
Wind Chill: 7°F , -14°C
Dew Point: 12°F , -11°C
Humidity: 86%
Barometer: 30.12 inHg , 1020 hPa
Summary: Mist
Clouds: Partly Cloudy
Visibility: 3 miles , 5 km
2019/01/21 01:00 LZZI 210100Z 10005KT 5000 BR NSC M09/M11 Q1020
LOAV - Voeslau-Kottingb, Austria
Distance from station: S 90mi, 146km
Updated: Sun, 20-Jan-2019 5:00pm CET
NOT Current
Mostly Cloudy
Mostly Cloudy
 Wind from W
Wind: W 17 mph , 28 km/h
Temperature: 28°F , -2°C
Wind Chill: 16°F , -9°C
Dew Point: 21°F , -6°C
Humidity: 74%
Clouds: Mostly Cloudy
Cloud details: Few Clouds 800 ft
Mostly Cloudy 2000 ft
2019/01/20 16:00 LOAV 201600Z 28015KT 10KM FEW008ST BKN020SC M02/M06
 
LOAN - Wr.neustadt East, Austria
Distance from station: S 98mi, 158km
Updated: Sun, 20-Jan-2019 5:00pm CET
NOT Current
Overcast
Overcast
 Wind from NNW
Wind: NNW 6 mph , 9 km/h
Clouds: Overcast
Cloud details: Overcast 2000 ft
2019/01/20 16:00 LOAN 201600Z 34005KT 10KM OVC020SC
LKKB - Kbely, Czech Republic
Distance from station: WNW 111mi, 178km
Updated: Mon, 21-Jan-2019 2:00am CET
Clear
Clear
 Wind from NE
Wind: NE 5 mph , 7 km/h
Temperature: 23°F , -5°C
Wind Chill: 17°F , -8°C
Dew Point: 19°F , -7°C
Humidity: 86%
Barometer: 30.15 inHg , 1021 hPa
Summary: Clear
Visibility: greater than 7 miles , 10 km
2019/01/21 01:00 LKKB 210100Z 05004KT CAVOK M05/M07 Q1021
 
LKVO - Vodochody, Czech Republic
Distance from station: NW 120mi, 192km
Updated: Fri, 18-Jan-2019 3:00pm CET
NOT Current
Partly Cloudy
Partly Cloudy
 Wind from NNW
Wind: NNW 7 mph , 11 km/h
Temperature: 32°F , 0°C
Wind Chill: 25°F , -4°C
Dew Point: 19°F , -7°C
Humidity: 60%
Barometer: 30.06 inHg , 1018 hPa
Clouds: Partly Cloudy
Visibility: 6 miles , 10 km
Cloud details: Partly Cloudy 3200 ft
2019/01/18 14:00 LKVO 181400Z 33006KT 280V070 9999 SCT032 M00/M07 Q1018
LKPR - Prague/Ruzyne, Czech Republic
Distance from station: WNW 121mi, 194km
Updated: Mon, 21-Jan-2019 2:00am CET
Partly Cloudy
Partly Cloudy
 Wind from NNW
Wind: NNW 2 mph , 4 km/h
Temperature: 21°F , -6°C
Dew Point: 19°F , -7°C
Humidity: 93%
Barometer: 30.12 inHg , 1020 hPa
Clouds: Partly Cloudy
Visibility: 6 miles , 9 km
2019/01/21 01:00 LKPR 210100Z 34002KT 9000 NSC M06/M07 Q1020 NOSIG
 
LZSL - Sliac, Slovakia
Distance from station: ESE 122mi, 196km
Updated: Mon, 21-Jan-2019 2:00am CET
Clear
Clear
 Wind from calm
Wind: Calm
Temperature: 16°F , -9°C
Dew Point: 12°F , -11°C
Humidity: 86%
Barometer: 30.09 inHg , 1019 hPa
Summary: Clear
Visibility: greater than 7 miles , 10 km
2019/01/21 01:00 LZSL 210100Z 00000KT CAVOK M09/M11 Q1019
LHPR - Gyor, Hungary
Distance from station: SSE 125mi, 201km
Updated: Mon, 21-Jan-2019 1:45am CET
Clear
Clear
 Wind from W
Wind: W 7 mph , 11 km/h
Temperature: 25°F , -4°C
Wind Chill: 17°F , -8°C
Dew Point: 23°F , -5°C
Humidity: 93%
Barometer: 30.12 inHg , 1020 hPa
Clouds: Clear
Visibility: 5 miles , 8 km
2019/01/21 00:45 LHPR 210045Z AUTO 26006KT 8000 NCD M04/M05 Q1020 RMK BLU
 
EPWR - Wroclaw/Strachow, Poland
Distance from station: N 128mi, 206km
Updated: Mon, 21-Jan-2019 2:00am CET
Mist, Mostly cloudy
Mist, Mostly cloudy
 Wind from NW
Wind: NW 3 mph , 6 km/h
Temperature: 23°F , -5°C
Dew Point: 21°F , -6°C
Humidity: 93%
Barometer: 30.21 inHg , 1023 hPa
Summary: Mist
Clouds: Mostly Cloudy
Visibility: 1 mile , 2 km
Cloud details: Mostly Cloudy 1100 ft
2019/01/21 01:00 EPWR 210100Z 31003KT 2000 BR BKN011 M05/M06 Q1023
LOWL - Linz (civ/Mil), Austria
Distance from station: WSW 132mi, 213km
Updated: Mon, 21-Jan-2019 1:50am CET
Few Clouds
Few Clouds
 Wind from N
Wind: N 6 mph , 9 km/h
Temperature: 21°F , -6°C
Wind Chill: 13°F , -11°C
Dew Point: 19°F , -7°C
Humidity: 93%
Barometer: 30.12 inHg , 1020 hPa
Clouds: Few Clouds
Visibility: 4 miles , 6 km
Cloud details: Few Clouds 4200 ft
2019/01/21 00:50 LOWL 210050Z AUTO 36005KT 6000 FEW042 M06/M07 Q1020

Metar display script from Saratoga-Weather.org